createdAt,value
2019-04-29T00:01:01.071Z,68.85
2019-04-29T00:02:10.771Z,68.62
2019-04-29T00:03:19.055Z,68.92
2019-04-29T00:04:27.154Z,68.77
2019-04-29T00:05:35.236Z,68.83
2019-04-29T00:06:43.215Z,68.76
2019-04-29T00:07:51.311Z,68.85
2019-04-29T00:08:59.611Z,68.87
2019-04-29T00:10:09.402Z,68.63
2019-04-29T00:11:17.444Z,68.42
2019-04-29T00:12:26.097Z,68.45
2019-04-29T00:13:36.102Z,68.46
2019-04-29T00:14:45.562Z,68.54
2019-04-29T00:16:11.334Z,68.48
2019-04-29T00:17:20.731Z,68.79
2019-04-29T00:18:46.573Z,68.54
2019-04-29T00:19:54.365Z,68.50
2019-04-29T00:21:02.460Z,68.49
2019-04-29T00:22:10.663Z,68.23
2019-04-29T00:23:18.945Z,68.17
2019-04-29T00:24:26.806Z,68.44
2019-04-29T00:25:35.170Z,68.34
2019-04-29T00:26:43.442Z,68.21
2019-04-29T00:27:51.486Z,68.09
2019-04-29T00:28:59.464Z,68.44
2019-04-29T00:30:12.464Z,68.56
2019-04-29T00:31:20.541Z,68.29
2019-04-29T00:32:28.755Z,68.29
2019-04-29T00:33:36.553Z,68.48
2019-04-29T00:34:44.419Z,68.32
2019-04-29T00:35:52.312Z,68.12
2019-04-29T00:37:04.879Z,68.31
2019-04-29T00:38:17.259Z,68.15
2019-04-29T00:39:42.779Z,68.34
2019-04-29T00:41:08.797Z,68.15
2019-04-29T00:42:19.143Z,68.15
2019-04-29T00:43:31.936Z,68.14
2019-04-29T00:44:40.084Z,68.18
2019-04-29T00:45:48.136Z,68.20
2019-04-29T00:46:55.926Z,68.17
2019-04-29T00:48:03.982Z,68.39
2019-04-29T00:49:12.065Z,68.24
2019-04-29T00:50:20.381Z,67.97
2019-04-29T00:51:28.459Z,68.15
2019-04-29T00:52:36.325Z,68.26
2019-04-29T00:53:44.977Z,68.28
2019-04-29T00:54:54.514Z,68.32
2019-04-29T00:56:03.842Z,68.08
2019-04-29T00:57:12.200Z,68.20
2019-04-29T00:58:20.065Z,68.16
2019-04-29T00:59:27.823Z,67.98
2019-04-29T01:00:38.301Z,68.22
2019-04-29T01:01:46.674Z,68.17
2019-04-29T01:02:54.748Z,68.09
2019-04-29T01:04:02.580Z,68.19
2019-04-29T01:05:10.823Z,68.20
2019-04-29T01:06:18.732Z,68.04
2019-04-29T01:07:26.573Z,68.12
2019-04-29T01:08:34.853Z,68.19
2019-04-29T01:09:42.717Z,68.09
2019-04-29T01:10:51.146Z,68.02
2019-04-29T01:11:59.102Z,68.04
2019-04-29T01:13:06.959Z,68.18
2019-04-29T01:14:14.805Z,68.02
2019-04-29T01:15:22.773Z,68.02
2019-04-29T01:16:30.884Z,68.06
2019-04-29T01:17:38.952Z,68.00
2019-04-29T01:18:46.838Z,68.04
2019-04-29T01:19:54.628Z,68.11
2019-04-29T01:21:02.795Z,68.12
2019-04-29T01:22:10.717Z,68.17
2019-04-29T01:23:18.601Z,68.20
2019-04-29T01:24:26.534Z,68.19
2019-04-29T01:25:34.643Z,68.14
2019-04-29T01:26:54.259Z,68.13
2019-04-29T01:28:13.733Z,68.09
2019-04-29T01:29:29.281Z,68.01
2019-04-29T01:30:52.945Z,67.93
2019-04-29T01:32:01.045Z,67.86
2019-04-29T01:33:08.850Z,67.59
2019-04-29T01:34:21.335Z,67.37
2019-04-29T01:35:29.504Z,67.35
2019-04-29T01:36:41.846Z,67.31
2019-04-29T01:37:50.030Z,67.30
2019-04-29T01:38:59.583Z,67.24
2019-04-29T01:40:22.397Z,67.44
2019-04-29T01:41:41.245Z,67.48
2019-04-29T01:42:49.169Z,67.55
2019-04-29T01:44:01.693Z,67.62
2019-04-29T01:45:09.938Z,67.60
2019-04-29T01:46:17.879Z,67.60
2019-04-29T01:47:26.029Z,67.74
2019-04-29T01:48:33.919Z,67.73
2019-04-29T01:49:41.916Z,67.87
2019-04-29T01:50:49.719Z,67.83
2019-04-29T01:51:57.472Z,67.97
2019-04-29T01:53:05.845Z,67.97
2019-04-29T01:54:13.890Z,67.80
2019-04-29T01:55:21.750Z,67.91
2019-04-29T01:56:29.492Z,67.75
2019-04-29T01:57:37.272Z,67.78
2019-04-29T01:58:45.513Z,67.92
2019-04-29T01:59:53.762Z,67.93
2019-04-29T02:01:01.676Z,67.95
2019-04-29T02:02:09.773Z,68.03
2019-04-29T02:03:18.746Z,68.05
2019-04-29T02:04:27.459Z,68.08
2019-04-29T02:05:35.375Z,67.92
2019-04-29T02:06:43.288Z,67.73
2019-04-29T02:07:51.328Z,67.94
2019-04-29T02:08:59.164Z,68.00
2019-04-29T02:10:09.478Z,67.95
2019-04-29T02:11:17.443Z,67.81
2019-04-29T02:12:25.488Z,67.90
2019-04-29T02:13:33.498Z,68.06
2019-04-29T02:14:41.394Z,68.03
2019-04-29T02:15:49.377Z,67.69
2019-04-29T02:16:57.283Z,67.90
2019-04-29T02:18:05.269Z,67.81
2019-04-29T02:19:13.469Z,67.91
2019-04-29T02:20:21.545Z,67.86
2019-04-29T02:21:29.857Z,67.78
2019-04-29T02:22:39.332Z,67.87
2019-04-29T02:23:49.039Z,67.70
2019-04-29T02:24:58.589Z,68.12
2019-04-29T02:26:07.502Z,68.01
2019-04-29T02:27:15.310Z,68.04
2019-04-29T02:28:23.424Z,68.04
2019-04-29T02:29:31.204Z,67.92
2019-04-29T02:30:46.118Z,67.80
2019-04-29T02:31:54.562Z,67.85
2019-04-29T02:33:02.457Z,67.88
2019-04-29T02:34:10.724Z,67.89
2019-04-29T02:35:18.508Z,67.96
2019-04-29T02:36:29.950Z,67.91
2019-04-29T02:37:37.732Z,67.99
2019-04-29T02:39:03.196Z,67.97
2019-04-29T02:40:21.669Z,67.99
2019-04-29T02:41:40.157Z,68.05
2019-04-29T02:42:47.744Z,68.00
2019-04-29T02:43:57.419Z,67.87
2019-04-29T02:45:13.826Z,67.96
2019-04-29T02:46:21.666Z,68.00
2019-04-29T02:47:29.583Z,68.09
2019-04-29T02:48:37.532Z,67.95
2019-04-29T02:49:45.499Z,68.15
2019-04-29T02:50:55.950Z,68.00
2019-04-29T02:52:03.869Z,68.15
2019-04-29T02:53:11.813Z,68.26
2019-04-29T02:54:20.139Z,68.20
2019-04-29T02:55:29.593Z,68.14
2019-04-29T02:56:37.896Z,68.18
2019-04-29T02:58:02.334Z,68.19
2019-04-29T02:59:11.977Z,68.29
2019-04-29T03:00:37.972Z,68.13
2019-04-29T03:01:54.328Z,68.05
2019-04-29T03:03:03.889Z,68.24
2019-04-29T03:04:13.421Z,68.25
2019-04-29T03:05:25.858Z,68.26
2019-04-29T03:06:33.869Z,68.30
2019-04-29T03:07:42.446Z,68.08
2019-04-29T03:08:50.703Z,68.36
2019-04-29T03:09:58.617Z,68.21
2019-04-29T03:11:06.755Z,68.50
2019-04-29T03:12:14.723Z,68.51
2019-04-29T03:13:22.551Z,68.48
2019-04-29T03:14:32.155Z,68.37
2019-04-29T03:15:43.143Z,68.57
2019-04-29T03:16:51.024Z,68.44
2019-04-29T03:17:59.583Z,68.31
2019-04-29T03:19:09.354Z,68.39
2019-04-29T03:20:18.923Z,68.46
2019-04-29T03:21:47.681Z,68.56
2019-04-29T03:23:09.907Z,68.56
2019-04-29T03:24:17.960Z,68.56
2019-04-29T03:25:25.995Z,68.49
2019-04-29T03:26:34.228Z,68.65
2019-04-29T03:27:42.241Z,68.62
2019-04-29T03:28:50.329Z,68.49
2019-04-29T03:29:58.433Z,68.30
2019-04-29T03:31:06.632Z,68.43
2019-04-29T03:32:14.519Z,68.31
2019-04-29T03:33:22.610Z,68.39
2019-04-29T03:34:30.727Z,68.36
2019-04-29T03:35:38.745Z,68.35
2019-04-29T03:36:46.602Z,68.52
2019-04-29T03:37:54.669Z,68.34
2019-04-29T03:39:03.377Z,68.33
2019-04-29T03:40:11.580Z,68.48
2019-04-29T03:41:19.896Z,68.46
2019-04-29T03:42:28.963Z,68.50
2019-04-29T03:43:36.875Z,68.43
2019-04-29T03:44:44.765Z,68.41
2019-04-29T03:45:52.780Z,68.33
2019-04-29T03:47:01.143Z,68.43
2019-04-29T03:48:09.195Z,68.43
2019-04-29T03:49:17.104Z,68.36
2019-04-29T03:50:25.057Z,68.34
2019-04-29T03:51:33.177Z,68.27
2019-04-29T03:52:40.930Z,68.45
2019-04-29T03:53:48.724Z,68.40
2019-04-29T03:54:56.927Z,68.29
2019-04-29T03:56:04.972Z,68.42
2019-04-29T03:57:14.558Z,68.26
2019-04-29T03:58:22.459Z,68.51
2019-04-29T03:59:30.173Z,68.42
2019-04-29T04:00:38.164Z,68.34
2019-04-29T04:01:47.755Z,68.42
2019-04-29T04:03:00.203Z,68.46
2019-04-29T04:04:09.775Z,68.51
2019-04-29T04:05:29.676Z,68.50
2019-04-29T04:06:39.029Z,68.39
2019-04-29T04:08:06.803Z,68.25
2019-04-29T04:09:28.161Z,68.33
2019-04-29T04:10:36.134Z,68.64
2019-04-29T04:11:44.728Z,68.38
2019-04-29T04:12:52.662Z,68.37
2019-04-29T04:14:00.726Z,68.42
2019-04-29T04:15:09.063Z,68.50
2019-04-29T04:16:18.593Z,68.50
2019-04-29T04:17:26.241Z,68.36
2019-04-29T04:18:35.985Z,68.49
2019-04-29T04:19:43.928Z,68.48
2019-04-29T04:20:51.947Z,68.44
2019-04-29T04:22:00.216Z,68.40
2019-04-29T04:23:08.200Z,68.23
2019-04-29T04:24:15.986Z,68.35
2019-04-29T04:25:23.744Z,68.38
2019-04-29T04:26:31.505Z,68.34
2019-04-29T04:27:39.486Z,68.35
2019-04-29T04:28:47.403Z,68.39
2019-04-29T04:29:56.226Z,68.41
2019-04-29T04:31:06.757Z,68.45
2019-04-29T04:32:14.161Z,68.42
2019-04-29T04:33:22.169Z,68.42
2019-04-29T04:34:30.390Z,68.52
2019-04-29T04:35:38.803Z,68.36
2019-04-29T04:36:46.930Z,68.44
2019-04-29T04:37:54.970Z,68.45
2019-04-29T04:39:04.535Z,68.23
2019-04-29T04:40:15.018Z,68.07
2019-04-29T04:41:23.072Z,68.25
2019-04-29T04:42:30.929Z,68.27
2019-04-29T04:43:38.852Z,68.42
2019-04-29T04:44:49.881Z,68.53
2019-04-29T04:45:57.994Z,68.21
2019-04-29T04:47:06.199Z,68.19
2019-04-29T04:48:14.434Z,68.15
2019-04-29T04:49:22.206Z,68.29
2019-04-29T04:50:30.409Z,68.22
2019-04-29T04:51:38.240Z,68.28
2019-04-29T04:52:46.273Z,68.28
2019-04-29T04:53:54.469Z,68.00
2019-04-29T04:55:02.554Z,68.21
2019-04-29T04:56:10.580Z,68.18
2019-04-29T04:57:18.763Z,68.21
2019-04-29T04:58:27.163Z,68.17
2019-04-29T04:59:35.438Z,67.94
2019-04-29T05:00:43.513Z,68.11
2019-04-29T05:01:51.331Z,67.97
2019-04-29T05:02:59.423Z,68.09
2019-04-29T05:04:07.432Z,68.20
2019-04-29T05:05:15.674Z,68.11
2019-04-29T05:06:23.637Z,68.13
2019-04-29T05:07:31.408Z,68.15
2019-04-29T05:08:39.428Z,68.17
2019-04-29T05:09:47.383Z,68.30
2019-04-29T05:10:55.638Z,68.21
2019-04-29T05:12:03.744Z,68.33
2019-04-29T05:13:11.696Z,68.25
2019-04-29T05:14:19.654Z,68.19
2019-04-29T05:15:27.609Z,68.21
2019-04-29T05:16:35.630Z,68.16
2019-04-29T05:17:43.704Z,68.23
2019-04-29T05:18:52.111Z,68.27
2019-04-29T05:20:00.313Z,68.23
2019-04-29T05:21:08.418Z,68.17
2019-04-29T05:22:16.858Z,68.29
2019-04-29T05:23:24.766Z,68.35
2019-04-29T05:24:32.870Z,68.21
2019-04-29T05:25:41.002Z,68.20
2019-04-29T05:26:49.276Z,68.30
2019-04-29T05:27:57.399Z,68.33
2019-04-29T05:29:05.640Z,68.26
2019-04-29T05:30:13.957Z,68.37
2019-04-29T05:31:21.889Z,68.42
2019-04-29T05:32:29.855Z,68.46
2019-04-29T05:33:37.977Z,68.23
2019-04-29T05:34:48.262Z,68.56
2019-04-29T05:36:06.773Z,68.52
2019-04-29T05:37:31.764Z,68.51
2019-04-29T05:38:41.904Z,68.40
2019-04-29T05:39:50.164Z,68.29
2019-04-29T05:40:58.358Z,68.44
2019-04-29T05:42:07.634Z,68.59
2019-04-29T05:43:18.140Z,68.51
2019-04-29T05:44:33.974Z,68.45
2019-04-29T05:46:00.007Z,68.49
2019-04-29T05:47:17.828Z,68.54
2019-04-29T05:48:27.679Z,68.71
2019-04-29T05:49:37.407Z,68.57
2019-04-29T05:50:52.050Z,68.71
2019-04-29T05:52:03.813Z,68.64
2019-04-29T05:53:19.385Z,68.73
2019-04-29T05:54:31.773Z,68.61
2019-04-29T05:55:38.694Z,68.65
2019-04-29T05:56:46.882Z,68.62
2019-04-29T05:58:02.923Z,68.59
2019-04-29T05:59:08.477Z,68.79
2019-04-29T06:00:22.883Z,68.74
2019-04-29T06:01:29.848Z,68.65
2019-04-29T06:02:38.874Z,68.67
2019-04-29T06:03:47.037Z,68.73
2019-04-29T06:04:55.141Z,68.55
2019-04-29T06:06:03.351Z,68.58
2019-04-29T06:07:11.857Z,68.75
2019-04-29T06:08:20.042Z,68.67
2019-04-29T06:09:28.357Z,68.69
2019-04-29T06:10:36.923Z,68.51
2019-04-29T06:11:45.139Z,68.67
2019-04-29T06:12:53.168Z,68.62
2019-04-29T06:14:01.514Z,68.53
2019-04-29T06:15:10.406Z,68.40
2019-04-29T06:16:20.864Z,68.57
2019-04-29T06:17:28.407Z,68.61
2019-04-29T06:18:36.357Z,68.74
2019-04-29T06:19:44.462Z,68.51
2019-04-29T06:20:52.688Z,68.64
2019-04-29T06:22:03.787Z,68.73
2019-04-29T06:23:10.532Z,68.73
2019-04-29T06:24:18.371Z,68.86
2019-04-29T06:25:26.314Z,68.69
2019-04-29T06:26:34.252Z,68.61
2019-04-29T06:27:42.189Z,69.05
2019-04-29T06:28:51.607Z,68.95
2019-04-29T06:30:03.071Z,68.79
2019-04-29T06:31:09.741Z,69.22
2019-04-29T06:32:20.173Z,68.96
2019-04-29T06:33:29.060Z,69.17
2019-04-29T06:34:40.033Z,69.11
2019-04-29T06:35:48.956Z,68.92
2019-04-29T06:36:57.088Z,68.88
2019-04-29T06:38:05.321Z,68.67
2019-04-29T06:39:13.751Z,68.77
2019-04-29T06:40:22.513Z,68.71
2019-04-29T06:41:30.830Z,68.65
2019-04-29T06:42:38.810Z,68.64
2019-04-29T06:43:47.017Z,68.81
2019-04-29T06:44:55.017Z,68.61
2019-04-29T06:46:03.121Z,68.57
2019-04-29T06:47:11.057Z,68.63
2019-04-29T06:48:19.003Z,68.79
2019-04-29T06:49:26.738Z,68.62
2019-04-29T06:50:35.067Z,68.55
2019-04-29T06:51:43.332Z,68.63
2019-04-29T06:52:51.478Z,68.63
2019-04-29T06:53:59.366Z,68.58
2019-04-29T06:55:07.758Z,68.50
2019-04-29T06:56:15.811Z,68.51
2019-04-29T06:57:23.657Z,68.56
2019-04-29T06:58:32.472Z,68.55
2019-04-29T06:59:43.075Z,68.59
2019-04-29T07:00:55.731Z,68.47
2019-04-29T07:02:01.459Z,68.51
2019-04-29T07:03:09.591Z,68.43
2019-04-29T07:04:17.857Z,68.34
2019-04-29T07:05:26.176Z,68.26
2019-04-29T07:06:34.289Z,68.19
2019-04-29T07:07:42.389Z,68.25
2019-04-29T07:08:50.591Z,68.15
2019-04-29T07:09:58.784Z,68.38
2019-04-29T07:11:06.819Z,68.36
2019-04-29T07:12:15.070Z,68.30
2019-04-29T07:13:24.586Z,68.34
2019-04-29T07:14:38.152Z,68.56
2019-04-29T07:15:43.568Z,68.64
2019-04-29T07:16:52.661Z,68.48
2019-04-29T07:18:00.565Z,68.37
2019-04-29T07:19:08.837Z,68.42
2019-04-29T07:20:16.855Z,68.64
2019-04-29T07:21:24.844Z,68.72
2019-04-29T07:22:32.544Z,68.58
2019-04-29T07:23:40.832Z,68.40
2019-04-29T07:24:48.823Z,68.38
2019-04-29T07:25:56.828Z,68.26
2019-04-29T07:27:05.432Z,68.27
2019-04-29T07:28:13.771Z,68.10
2019-04-29T07:29:29.722Z,68.13
2019-04-29T07:30:33.214Z,68.00
2019-04-29T07:31:41.408Z,68.10
2019-04-29T07:32:49.365Z,68.03
2019-04-29T07:33:57.929Z,68.20
2019-04-29T07:35:09.904Z,68.28
2019-04-29T07:36:18.707Z,68.16
2019-04-29T07:37:29.693Z,68.44
2019-04-29T07:38:41.545Z,68.50
2019-04-29T07:39:47.453Z,68.34
2019-04-29T07:40:55.651Z,68.06
2019-04-29T07:42:03.594Z,68.21
2019-04-29T07:43:11.724Z,68.19
2019-04-29T07:44:20.006Z,68.14
2019-04-29T07:45:46.014Z,68.19
2019-04-29T07:46:59.149Z,68.42
2019-04-29T07:48:06.309Z,68.32
2019-04-29T07:49:17.162Z,68.23
2019-04-29T07:50:26.752Z,68.13
2019-04-29T07:51:39.400Z,68.12
2019-04-29T07:52:45.588Z,68.21
2019-04-29T07:53:54.421Z,68.24
2019-04-29T07:55:02.268Z,68.29
2019-04-29T07:56:10.324Z,68.22
2019-04-29T07:57:18.961Z,68.20
2019-04-29T07:58:27.391Z,68.15
2019-04-29T07:59:38.511Z,68.01
2019-04-29T08:00:48.805Z,67.96
2019-04-29T08:01:59.908Z,67.91
2019-04-29T08:03:08.402Z,67.91
2019-04-29T08:04:16.334Z,67.96
2019-04-29T08:05:24.181Z,67.87
2019-04-29T08:06:33.703Z,67.92
2019-04-29T08:07:42.909Z,67.92
2019-04-29T08:08:55.064Z,68.08
2019-04-29T08:10:03.566Z,67.95
2019-04-29T08:11:12.708Z,67.61
2019-04-29T08:12:23.344Z,67.35
2019-04-29T08:13:33.412Z,67.25
2019-04-29T08:14:41.975Z,67.38
2019-04-29T08:15:49.748Z,67.64
2019-04-29T08:16:57.923Z,67.79
2019-04-29T08:18:07.013Z,67.73
2019-04-29T08:19:15.643Z,67.77
2019-04-29T08:20:24.307Z,67.72
2019-04-29T08:21:32.329Z,67.65
2019-04-29T08:22:40.220Z,67.67
2019-04-29T08:23:50.508Z,67.67
2019-04-29T08:24:58.599Z,67.58
2019-04-29T08:26:06.592Z,67.71
2019-04-29T08:27:14.709Z,67.81
2019-04-29T08:28:23.448Z,67.84
2019-04-29T08:29:35.845Z,67.48
2019-04-29T08:30:41.932Z,67.47
2019-04-29T08:31:51.890Z,67.47
2019-04-29T08:33:00.685Z,67.27
2019-04-29T08:34:08.822Z,67.37
2019-04-29T08:35:16.813Z,67.36
2019-04-29T08:36:25.287Z,67.44
2019-04-29T08:37:33.383Z,67.67
2019-04-29T08:38:41.583Z,67.64
2019-04-29T08:40:08.280Z,67.55
2019-04-29T08:40:59.558Z,67.61
2019-04-29T08:42:09.418Z,67.61
2019-04-29T08:43:20.687Z,67.82
2019-04-29T08:44:29.656Z,67.68
2019-04-29T08:45:48.609Z,67.60
2019-04-29T08:47:01.534Z,67.78
2019-04-29T08:48:09.652Z,67.91
2019-04-29T08:49:17.686Z,67.62
2019-04-29T08:50:25.694Z,67.12
2019-04-29T08:51:34.014Z,66.99
2019-04-29T08:52:41.932Z,66.94
2019-04-29T08:53:50.306Z,66.92
2019-04-29T08:54:58.152Z,67.04
2019-04-29T08:56:10.113Z,67.26
2019-04-29T08:57:16.054Z,67.54
2019-04-29T08:58:24.230Z,67.75
2019-04-29T08:59:32.239Z,67.05
2019-04-29T09:00:40.489Z,67.07
2019-04-29T09:01:48.467Z,67.22
2019-04-29T09:02:56.722Z,67.37
2019-04-29T09:04:05.014Z,67.33
2019-04-29T09:05:14.451Z,67.16
2019-04-29T09:06:22.315Z,67.24
2019-04-29T09:07:30.529Z,67.11
2019-04-29T09:08:53.517Z,67.01
2019-04-29T09:09:48.577Z,66.64
2019-04-29T09:10:57.074Z,66.28
2019-04-29T09:12:05.168Z,66.14
2019-04-29T09:13:13.106Z,66.36
2019-04-29T09:14:21.272Z,66.46
2019-04-29T09:15:29.202Z,66.56
2019-04-29T09:16:37.367Z,66.85
2019-04-29T09:17:45.523Z,67.16
2019-04-29T09:18:53.765Z,67.25
2019-04-29T09:20:01.821Z,67.00
2019-04-29T09:21:09.853Z,66.62
2019-04-29T09:22:19.509Z,66.72
2019-04-29T09:23:35.158Z,66.02
2019-04-29T09:24:48.136Z,65.46
2019-04-29T09:26:03.304Z,65.27
2019-04-29T09:27:16.172Z,65.25
2019-04-29T09:28:28.141Z,64.90
2019-04-29T09:29:34.744Z,65.18
2019-04-29T09:30:43.022Z,65.50
2019-04-29T09:31:51.029Z,65.45
2019-04-29T09:32:59.213Z,65.21
2019-04-29T09:34:07.158Z,65.43
2019-04-29T09:35:15.809Z,65.71
2019-04-29T09:36:23.776Z,65.71
2019-04-29T09:37:31.685Z,65.71
2019-04-29T09:38:39.971Z,65.73
2019-04-29T09:39:48.171Z,65.75
2019-04-29T09:41:01.621Z,65.78
2019-04-29T09:42:13.120Z,65.77
2019-04-29T09:43:32.927Z,65.63
2019-04-29T09:44:44.622Z,65.65
2019-04-29T09:45:58.628Z,65.73
2019-04-29T09:47:08.464Z,65.65
2019-04-29T09:48:15.604Z,65.49
2019-04-29T09:49:23.972Z,65.62
2019-04-29T09:50:34.305Z,65.60
2019-04-29T09:51:41.863Z,65.70
2019-04-29T09:52:50.012Z,65.57
2019-04-29T09:53:58.009Z,65.69
2019-04-29T09:55:06.917Z,65.86
2019-04-29T09:56:14.671Z,65.84
2019-04-29T09:57:23.046Z,65.89
2019-04-29T09:58:31.108Z,66.07
2019-04-29T09:59:47.292Z,66.38
2019-04-29T10:00:59.616Z,66.35
2019-04-29T10:02:26.157Z,66.36
2019-04-29T10:03:33.702Z,66.52
2019-04-29T10:04:56.512Z,66.65
2019-04-29T10:06:14.193Z,66.58
2019-04-29T10:07:22.451Z,66.63
2019-04-29T10:08:30.442Z,66.21
2019-04-29T10:09:38.303Z,66.10
2019-04-29T10:10:46.677Z,66.05
2019-04-29T10:11:54.621Z,66.15
2019-04-29T10:13:02.596Z,66.08
2019-04-29T10:14:10.846Z,66.17
2019-04-29T10:15:20.818Z,66.35
2019-04-29T10:16:35.971Z,66.33
2019-04-29T10:17:45.944Z,66.38
2019-04-29T10:19:08.146Z,66.51
2019-04-29T10:20:17.862Z,66.42
2019-04-29T10:21:26.144Z,66.52
2019-04-29T10:22:35.072Z,66.53
2019-04-29T10:23:43.369Z,66.47
2019-04-29T10:24:51.691Z,66.26
2019-04-29T10:26:00.013Z,66.23
2019-04-29T10:27:08.481Z,66.25
2019-04-29T10:28:16.577Z,66.35
2019-04-29T10:29:26.158Z,66.38
2019-04-29T10:30:34.205Z,66.43
2019-04-29T10:31:42.353Z,66.55
2019-04-29T10:32:50.959Z,66.64
2019-04-29T10:33:59.157Z,66.61
2019-04-29T10:35:10.639Z,66.70
2019-04-29T10:36:20.499Z,66.45
2019-04-29T10:37:31.320Z,66.42
2019-04-29T10:38:40.493Z,66.55
2019-04-29T10:40:10.532Z,66.55
2019-04-29T10:41:19.412Z,66.55
2019-04-29T10:42:38.514Z,66.31
2019-04-29T10:43:53.626Z,66.34
2019-04-29T10:45:00.721Z,66.24
2019-04-29T10:46:20.827Z,66.14
2019-04-29T10:47:40.902Z,66.36
2019-04-29T10:48:53.727Z,66.34
2019-04-29T10:50:03.641Z,66.21
2019-04-29T10:51:13.612Z,66.38
2019-04-29T10:52:21.805Z,66.40
2019-04-29T10:53:29.864Z,66.58
2019-04-29T10:54:38.000Z,66.81
2019-04-29T10:55:46.272Z,66.76
2019-04-29T10:56:54.320Z,66.74
2019-04-29T10:58:02.522Z,66.60
2019-04-29T10:59:11.158Z,66.56
2019-04-29T11:00:25.237Z,66.55
2019-04-29T11:02:18.379Z,66.59
2019-04-29T11:03:26.397Z,66.46
2019-04-29T11:04:36.084Z,66.51
2019-04-29T11:05:59.869Z,66.47
2019-04-29T11:06:56.812Z,66.23
2019-04-29T11:08:07.376Z,66.08
2019-04-29T11:09:17.051Z,66.17
2019-04-29T11:10:27.252Z,66.28
2019-04-29T11:11:36.002Z,66.41
2019-04-29T11:12:43.866Z,66.46
2019-04-29T11:13:52.547Z,66.55
2019-04-29T11:15:01.668Z,66.62
2019-04-29T11:16:11.156Z,66.55
2019-04-29T11:17:23.181Z,66.45
2019-04-29T11:18:31.212Z,66.28
2019-04-29T11:19:41.369Z,66.50
2019-04-29T11:20:53.713Z,66.57
2019-04-29T11:22:02.149Z,66.74
2019-04-29T11:23:18.054Z,66.79
2019-04-29T11:24:42.993Z,66.92
2019-04-29T11:25:54.494Z,66.70
2019-04-29T11:27:12.087Z,66.67
2019-04-29T11:28:17.747Z,66.78
2019-04-29T11:29:27.185Z,66.79
2019-04-29T11:30:39.521Z,66.84
2019-04-29T11:31:49.131Z,67.04
2019-04-29T11:33:14.952Z,67.08
2019-04-29T11:34:27.472Z,66.94
2019-04-29T11:35:36.965Z,67.07
2019-04-29T11:36:44.919Z,66.90
2019-04-29T11:37:55.011Z,66.99
2019-04-29T11:39:02.643Z,66.95
2019-04-29T11:40:11.381Z,67.03
2019-04-29T11:41:19.951Z,67.06
2019-04-29T11:42:31.832Z,67.01
2019-04-29T11:43:39.137Z,67.14
2019-04-29T11:44:47.164Z,67.10
2019-04-29T11:45:56.802Z,67.02
2019-04-29T11:47:04.789Z,67.34
2019-04-29T11:48:13.636Z,67.25
2019-04-29T11:49:23.136Z,67.47
2019-04-29T11:50:45.232Z,67.48
2019-04-29T11:52:08.409Z,67.43
2019-04-29T11:53:02.620Z,67.56
2019-04-29T11:54:12.387Z,67.61
2019-04-29T11:55:20.719Z,67.34
2019-04-29T11:56:28.916Z,67.28
2019-04-29T11:57:41.107Z,67.34
2019-04-29T11:59:06.221Z,67.14
2019-04-29T12:00:18.374Z,67.16
2019-04-29T12:01:38.711Z,67.12
2019-04-29T12:02:54.376Z,67.24
2019-04-29T12:04:10.754Z,67.32
2019-04-29T12:05:26.386Z,67.32
2019-04-29T12:06:34.490Z,67.37
2019-04-29T12:07:42.583Z,67.51
2019-04-29T12:08:53.379Z,67.62
2019-04-29T12:10:02.234Z,67.59
2019-04-29T12:11:10.554Z,67.62
2019-04-29T12:12:19.001Z,67.58
2019-04-29T12:13:45.372Z,67.60
2019-04-29T12:14:53.709Z,67.45
2019-04-29T12:16:12.203Z,67.48
2019-04-29T12:17:39.981Z,67.45
2019-04-29T12:18:52.355Z,67.42
2019-04-29T12:20:01.806Z,67.70
2019-04-29T12:21:13.888Z,67.66
2019-04-29T12:22:30.106Z,67.77
2019-04-29T12:23:31.732Z,67.84
2019-04-29T12:24:39.760Z,67.81
2019-04-29T12:25:47.992Z,67.71
2019-04-29T12:26:56.340Z,67.94
2019-04-29T12:28:18.760Z,67.86
2019-04-29T12:29:18.394Z,67.93
2019-04-29T12:30:29.803Z,67.83
2019-04-29T12:31:49.270Z,67.78
2019-04-29T12:33:01.382Z,67.86
2019-04-29T12:34:11.948Z,67.70
2019-04-29T12:35:30.148Z,67.55
2019-04-29T12:36:55.029Z,67.66
2019-04-29T12:38:00.673Z,67.75
2019-04-29T12:39:10.472Z,67.80
2019-04-29T12:40:36.242Z,67.89
2019-04-29T12:41:49.365Z,67.96
2019-04-29T12:43:17.392Z,67.84
2019-04-29T12:44:35.026Z,67.69
2019-04-29T12:45:36.764Z,67.79
2019-04-29T12:46:46.419Z,67.77
2019-04-29T12:47:54.568Z,67.83
2019-04-29T12:49:03.514Z,67.96
2019-04-29T12:50:12.267Z,67.91
2019-04-29T12:51:20.115Z,67.85
2019-04-29T12:52:28.773Z,67.85
2019-04-29T12:53:36.870Z,67.88
2019-04-29T12:54:46.127Z,67.88
2019-04-29T12:55:56.201Z,67.94
2019-04-29T12:57:04.438Z,68.01
2019-04-29T12:58:12.440Z,68.06
2019-04-29T12:59:20.763Z,68.01
2019-04-29T13:00:30.907Z,67.93
2019-04-29T13:01:59.572Z,68.07
2019-04-29T13:03:08.515Z,68.07
2019-04-29T13:04:30.109Z,68.05
2019-04-29T13:05:57.583Z,67.84
2019-04-29T13:06:58.707Z,67.93
2019-04-29T13:08:08.919Z,67.97
2019-04-29T13:09:34.975Z,67.98
2019-04-29T13:10:50.482Z,68.03
2019-04-29T13:12:17.725Z,68.10
2019-04-29T13:13:09.100Z,68.13
2019-04-29T13:14:17.282Z,68.07
2019-04-29T13:15:33.317Z,68.16
2019-04-29T13:16:45.154Z,68.17
2019-04-29T13:18:03.550Z,68.04
2019-04-29T13:19:25.021Z,68.28
2019-04-29T13:20:33.723Z,68.28
2019-04-29T13:21:41.813Z,68.29
2019-04-29T13:22:49.929Z,68.38
2019-04-29T13:24:12.521Z,68.46
2019-04-29T13:25:09.376Z,68.57
2019-04-29T13:26:27.790Z,68.66
2019-04-29T13:27:27.195Z,68.62
2019-04-29T13:28:51.800Z,68.65
2019-04-29T13:29:44.871Z,68.46
2019-04-29T13:30:56.860Z,68.62
2019-04-29T13:32:02.874Z,68.63
2019-04-29T13:33:16.642Z,68.53
2019-04-29T13:34:24.579Z,68.52
2019-04-29T13:35:32.055Z,68.60
2019-04-29T13:36:40.028Z,68.65
2019-04-29T13:37:47.865Z,68.77
2019-04-29T13:38:56.277Z,68.67
2019-04-29T13:40:05.973Z,68.61
2019-04-29T13:41:14.371Z,68.55
2019-04-29T13:42:25.313Z,68.50
2019-04-29T13:43:35.549Z,68.49
2019-04-29T13:45:04.507Z,68.32
2019-04-29T13:46:13.051Z,68.46
2019-04-29T13:47:28.395Z,68.38
2019-04-29T13:48:55.916Z,68.29
2019-04-29T13:50:17.162Z,68.65
2019-04-29T13:51:34.458Z,68.56
2019-04-29T13:52:28.817Z,68.69
2019-04-29T13:53:36.821Z,68.81
2019-04-29T13:54:44.752Z,68.79
2019-04-29T13:56:10.500Z,68.81
2019-04-29T13:57:09.374Z,68.69
2019-04-29T13:58:13.045Z,68.88
2019-04-29T13:59:25.369Z,69.09
2019-04-29T14:00:37.842Z,69.12
2019-04-29T14:02:07.276Z,68.98
2019-04-29T14:03:14.455Z,68.97
2019-04-29T14:04:33.358Z,69.03
2019-04-29T14:05:42.810Z,69.07
2019-04-29T14:06:57.027Z,69.16
2019-04-29T14:08:00.860Z,69.15
2019-04-29T14:09:10.548Z,69.12
2019-04-29T14:10:18.966Z,69.19
2019-04-29T14:11:27.715Z,69.13
2019-04-29T14:12:48.453Z,69.18
2019-04-29T14:13:48.376Z,69.12
2019-04-29T14:14:58.574Z,69.15
2019-04-29T14:16:07.787Z,69.18
2019-04-29T14:17:25.906Z,69.05
2019-04-29T14:18:25.221Z,68.98
2019-04-29T14:19:40.901Z,69.00
2019-04-29T14:20:47.409Z,68.98
2019-04-29T14:21:53.993Z,68.98
2019-04-29T14:23:02.133Z,69.02
2019-04-29T14:24:10.317Z,69.05
2019-04-29T14:25:18.394Z,69.06
2019-04-29T14:26:29.277Z,69.11
2019-04-29T14:27:35.859Z,69.04
2019-04-29T14:28:43.954Z,68.97
2019-04-29T14:29:52.466Z,68.96
2019-04-29T14:31:01.105Z,68.91
2019-04-29T14:32:09.354Z,68.97
2019-04-29T14:33:24.067Z,68.96
2019-04-29T14:34:36.757Z,69.07
2019-04-29T14:35:48.181Z,69.12
2019-04-29T14:37:18.288Z,69.04
2019-04-29T14:38:06.865Z,68.83
2019-04-29T14:39:17.588Z,68.92
2019-04-29T14:40:24.809Z,69.19
2019-04-29T14:41:34.660Z,69.18
2019-04-29T14:42:57.974Z,69.11
2019-04-29T14:44:09.339Z,69.10
2019-04-29T14:45:28.089Z,69.00
2019-04-29T14:46:38.690Z,68.96
2019-04-29T14:48:04.865Z,68.82
2019-04-29T14:49:20.949Z,68.86
2019-04-29T14:50:29.353Z,69.11
2019-04-29T14:51:38.056Z,68.91
2019-04-29T14:52:49.333Z,68.77
2019-04-29T14:53:57.283Z,68.72
2019-04-29T14:55:08.139Z,68.73
2019-04-29T14:56:16.332Z,68.75
2019-04-29T14:57:24.178Z,68.75
2019-04-29T14:58:32.213Z,68.85
2019-04-29T14:59:40.598Z,68.93
2019-04-29T15:00:51.302Z,69.02
2019-04-29T15:02:01.372Z,68.99
2019-04-29T15:03:09.581Z,69.10
2019-04-29T15:04:19.348Z,69.04